Time;durP1;ratioP1;P1;durP2;ratioP2;P2;SDS_P1;SDS_P2;PMS_P1;PMS_P2;Temp;Humidity;BMP_temperature;BMP_pressure;BME280_temperature;BME280_humidity;BME280_pressure;Samples;Min_cycle;Max_cycle;Signal;HPM_P1;HPM_P2
2022/12/09 00:00:00;;;;;;;2.6;2.5;;;;;;;2.5;100.0;100460;;;;
2022/12/09 00:01:09;;;;;;;2.6;2.5;;;;;;;2.4;100.0;100460;;;;
2022/12/09 00:02:00;;;;;;;2.6;2.5;;;;;;;2.4;100.0;100460;;;;
2022/12/09 00:03:00;;;;;;;2.7;2.6;;;;;;;2.5;100.0;100460;;;;
2022/12/09 00:04:00;;;;;;;2.7;2.6;;;;;;;2.5;100.0;100460;;;;
2022/12/09 00:05:01;;;;;;;2.7;2.6;;;;;;;2.5;100.0;100460;;;;
2022/12/09 00:06:08;;;;;;;2.7;2.6;;;;;;;2.5;100.0;100460;;;;
2022/12/09 00:07:00;;;;;;;2.7;2.6;;;;;;;2.4;100.0;100470;;;;
2022/12/09 00:08:00;;;;;;;2.7;2.6;;;;;;;2.4;100.0;100470;;;;
2022/12/09 00:09:00;;;;;;;2.7;2.6;;;;;;;2.4;100.0;100460;;;;
2022/12/09 00:10:00;;;;;;;2.7;2.6;;;;;;;2.4;100.0;100460;;;;
2022/12/09 00:11:00;;;;;;;2.7;2.6;;;;;;;2.3;100.0;100460;;;;
2022/12/09 00:12:00;;;;;;;2.7;2.6;;;;;;;2.3;100.0;100460;;;;
2022/12/09 00:13:00;;;;;;;2.7;2.6;;;;;;;2.4;100.0;100460;;;;
2022/12/09 00:14:00;;;;;;;2.7;2.6;;;;;;;2.4;100.0;100460;;;;
2022/12/09 00:15:00;;;;;;;2.7;2.6;;;;;;;2.5;100.0;100460;;;;
2022/12/09 00:16:04;;;;;;;2.7;2.6;;;;;;;2.5;100.0;100460;;;;
2022/12/09 00:17:00;;;;;;;2.7;2.6;;;;;;;2.5;100.0;100460;;;;
2022/12/09 00:18:00;;;;;;;2.7;2.6;;;;;;;2.5;100.0;100460;;;;
2022/12/09 00:19:00;;;;;;;2.7;2.6;;;;;;;2.4;100.0;100460;;;;
2022/12/09 00:20:00;;;;;;;2.7;2.6;;;;;;;2.4;100.0;100460;;;;
2022/12/09 00:21:10;;;;;;;2.7;2.6;;;;;;;2.4;100.0;100450;;;;
2022/12/09 00:22:00;;;;;;;2.7;2.6;;;;;;;2.4;100.0;100450;;;;
2022/12/09 00:23:00;;;;;;;2.7;2.6;;;;;;;2.4;100.0;100450;;;;
2022/12/09 00:24:01;;;;;;;2.7;2.6;;;;;;;2.4;100.0;100450;;;;
2022/12/09 00:25:00;;;;;;;2.7;2.6;;;;;;;2.4;100.0;100450;;;;
2022/12/09 00:26:00;;;;;;;2.7;2.6;;;;;;;2.4;100.0;100450;;;;
2022/12/09 00:27:00;;;;;;;2.7;2.6;;;;;;;2.5;100.0;100460;;;;
2022/12/09 00:28:00;;;;;;;2.7;2.6;;;;;;;2.5;100.0;100460;;;;
2022/12/09 00:29:00;;;;;;;2.7;2.6;;;;;;;2.4;100.0;100460;;;;
2022/12/09 00:30:00;;;;;;;2.7;2.6;;;;;;;2.4;100.0;100460;;;;
2022/12/09 00:31:01;;;;;;;2.7;2.6;;;;;;;2.4;100.0;100460;;;;
2022/12/09 00:32:00;;;;;;;2.7;2.6;;;;;;;2.4;100.0;100460;;;;
2022/12/09 00:33:00;;;;;;;2.7;2.6;;;;;;;2.4;100.0;100460;;;;
2022/12/09 00:34:01;;;;;;;2.7;2.6;;;;;;;2.4;100.0;100460;;;;
2022/12/09 00:35:00;;;;;;;2.7;2.6;;;;;;;2.4;100.0;100450;;;;
2022/12/09 00:36:04;;;;;;;2.7;2.6;;;;;;;2.4;100.0;100450;;;;
2022/12/09 00:37:00;;;;;;;2.7;2.6;;;;;;;2.4;100.0;100460;;;;
2022/12/09 00:38:00;;;;;;;2.7;2.6;;;;;;;2.4;100.0;100460;;;;
2022/12/09 00:39:00;;;;;;;2.7;2.6;;;;;;;2.4;100.0;100450;;;;
2022/12/09 00:40:00;;;;;;;2.7;2.6;;;;;;;2.4;100.0;100450;;;;
2022/12/09 00:41:00;;;;;;;2.7;2.6;;;;;;;2.3;100.0;100450;;;;
2022/12/09 00:42:00;;;;;;;2.7;2.6;;;;;;;2.3;100.0;100450;;;;
2022/12/09 00:43:00;;;;;;;2.6;2.5;;;;;;;2.3;100.0;100450;;;;
2022/12/09 00:44:00;;;;;;;2.6;2.5;;;;;;;2.3;100.0;100450;;;;
2022/12/09 00:45:00;;;;;;;2.6;2.5;;;;;;;2.3;100.0;100460;;;;
2022/12/09 00:46:00;;;;;;;2.6;2.5;;;;;;;2.3;100.0;100460;;;;
2022/12/09 00:47:00;;;;;;;2.6;2.5;;;;;;;2.3;100.0;100450;;;;
2022/12/09 00:48:00;;;;;;;2.6;2.5;;;;;;;2.3;100.0;100450;;;;
2022/12/09 00:49:00;;;;;;;2.6;2.5;;;;;;;2.3;100.0;100460;;;;
2022/12/09 00:50:00;;;;;;;2.6;2.5;;;;;;;2.3;100.0;100460;;;;
2022/12/09 00:51:01;;;;;;;2.6;2.5;;;;;;;2.3;100.0;100460;;;;
2022/12/09 00:52:00;;;;;;;2.6;2.5;;;;;;;2.3;100.0;100460;;;;
2022/12/09 00:53:00;;;;;;;2.6;2.5;;;;;;;2.3;100.0;100460;;;;
2022/12/09 00:54:00;;;;;;;2.6;2.5;;;;;;;2.3;100.0;100460;;;;
2022/12/09 00:55:00;;;;;;;2.6;2.5;;;;;;;2.3;100.0;100460;;;;
2022/12/09 00:56:00;;;;;;;2.6;2.5;;;;;;;2.3;100.0;100460;;;;
2022/12/09 00:57:00;;;;;;;2.6;2.5;;;;;;;2.4;100.0;100460;;;;
2022/12/09 00:58:00;;;;;;;2.6;2.5;;;;;;;2.4;100.0;100460;;;;
2022/12/09 00:59:00;;;;;;;2.6;2.5;;;;;;;2.4;100.0;100460;;;;
2022/12/09 01:00:00;;;;;;;2.6;2.5;;;;;;;2.4;100.0;100460;;;;
2022/12/09 01:01:00;;;;;;;2.6;2.5;;;;;;;2.4;100.0;100460;;;;
2022/12/09 01:02:00;;;;;;;3.0;2.9;;;;;;;2.4;100.0;100460;;;;
2022/12/09 01:03:00;;;;;;;3.0;2.9;;;;;;;2.5;100.0;100460;;;;
2022/12/09 01:04:01;;;;;;;3.0;2.9;;;;;;;2.5;100.0;100460;;;;
2022/12/09 01:05:00;;;;;;;3.0;2.9;;;;;;;2.4;100.0;100450;;;;
2022/12/09 01:06:00;;;;;;;3.0;2.9;;;;;;;2.4;100.0;100450;;;;
2022/12/09 01:07:00;;;;;;;3.0;2.9;;;;;;;2.5;100.0;100450;;;;
2022/12/09 01:08:00;;;;;;;3.0;2.9;;;;;;;2.5;100.0;100450;;;;
2022/12/09 01:09:01;;;;;;;3.0;2.9;;;;;;;2.4;100.0;100450;;;;
2022/12/09 01:10:00;;;;;;;3.0;2.9;;;;;;;2.4;100.0;100450;;;;
2022/12/09 01:11:06;;;;;;;3.0;2.9;;;;;;;2.4;100.0;100450;;;;
2022/12/09 01:12:00;;;;;;;3.0;2.9;;;;;;;2.4;100.0;100450;;;;
2022/12/09 01:13:00;;;;;;;3.0;2.9;;;;;;;2.4;100.0;100460;;;;
2022/12/09 01:14:01;;;;;;;3.0;2.9;;;;;;;2.4;100.0;100460;;;;
2022/12/09 01:15:00;;;;;;;3.0;2.9;;;;;;;2.5;100.0;100460;;;;
2022/12/09 01:16:00;;;;;;;3.0;2.9;;;;;;;2.5;100.0;100460;;;;
2022/12/09 01:17:00;;;;;;;3.0;2.9;;;;;;;2.5;100.0;100460;;;;
2022/12/09 01:18:00;;;;;;;3.0;2.9;;;;;;;2.5;100.0;100460;;;;
2022/12/09 01:19:01;;;;;;;3.0;2.9;;;;;;;2.5;100.0;100450;;;;
2022/12/09 01:20:00;;;;;;;3.0;2.9;;;;;;;2.5;100.0;100450;;;;
2022/12/09 01:21:00;;;;;;;3.0;2.9;;;;;;;2.5;100.0;100450;;;;
2022/12/09 01:22:00;;;;;;;2.7;2.6;;;;;;;2.5;100.0;100450;;;;
2022/12/09 01:23:00;;;;;;;2.7;2.6;;;;;;;2.5;100.0;100460;;;;
2022/12/09 01:24:00;;;;;;;2.7;2.6;;;;;;;2.5;100.0;100460;;;;
2022/12/09 01:25:00;;;;;;;2.7;2.6;;;;;;;2.5;100.0;100460;;;;
2022/12/09 01:26:01;;;;;;;2.7;2.6;;;;;;;2.5;100.0;100460;;;;
2022/12/09 01:27:00;;;;;;;2.7;2.6;;;;;;;2.4;100.0;100450;;;;
2022/12/09 01:28:00;;;;;;;2.7;2.6;;;;;;;2.4;100.0;100450;;;;
2022/12/09 01:29:00;;;;;;;2.7;2.6;;;;;;;2.5;100.0;100450;;;;
2022/12/09 01:30:00;;;;;;;2.7;2.6;;;;;;;2.5;100.0;100450;;;;
2022/12/09 01:31:04;;;;;;;2.7;2.6;;;;;;;2.5;100.0;100460;;;;
2022/12/09 01:32:00;;;;;;;2.7;2.6;;;;;;;2.5;100.0;100460;;;;
2022/12/09 01:33:00;;;;;;;2.7;2.6;;;;;;;2.5;100.0;100460;;;;
2022/12/09 01:34:00;;;;;;;2.7;2.6;;;;;;;2.5;100.0;100460;;;;
2022/12/09 01:35:01;;;;;;;2.7;2.6;;;;;;;2.5;100.0;100460;;;;
2022/12/09 01:36:03;;;;;;;2.7;2.6;;;;;;;2.5;100.0;100460;;;;
2022/12/09 01:37:00;;;;;;;2.7;2.6;;;;;;;2.5;100.0;100460;;;;
2022/12/09 01:38:00;;;;;;;2.7;2.6;;;;;;;2.5;100.0;100460;;;;
2022/12/09 01:39:00;;;;;;;2.7;2.6;;;;;;;2.6;100.0;100470;;;;
2022/12/09 01:40:00;;;;;;;2.7;2.6;;;;;;;2.6;100.0;100470;;;;
2022/12/09 01:41:00;;;;;;;2.7;2.6;;;;;;;2.5;100.0;100470;;;;
2022/12/09 01:42:01;;;;;;;2.8;2.7;;;;;;;2.5;100.0;100470;;;;
2022/12/09 01:43:00;;;;;;;2.8;2.7;;;;;;;2.5;100.0;100470;;;;
2022/12/09 01:44:10;;;;;;;2.8;2.7;;;;;;;2.5;100.0;100470;;;;
2022/12/09 01:45:10;;;;;;;2.8;2.7;;;;;;;2.6;100.0;100470;;;;
2022/12/09 01:46:00;;;;;;;2.8;2.7;;;;;;;2.6;100.0;100470;;;;
2022/12/09 01:47:01;;;;;;;2.8;2.7;;;;;;;2.6;100.0;100470;;;;
2022/12/09 01:48:04;;;;;;;2.8;2.7;;;;;;;2.6;100.0;100470;;;;
2022/12/09 01:49:00;;;;;;;2.8;2.7;;;;;;;2.5;100.0;100470;;;;
2022/12/09 01:50:00;;;;;;;2.8;2.7;;;;;;;2.5;100.0;100470;;;;
2022/12/09 01:51:04;;;;;;;2.8;2.7;;;;;;;2.5;100.0;100470;;;;
2022/12/09 01:52:10;;;;;;;2.8;2.7;;;;;;;2.5;100.0;100470;;;;
2022/12/09 01:53:00;;;;;;;2.8;2.7;;;;;;;2.5;100.0;100470;;;;
2022/12/09 01:54:00;;;;;;;2.8;2.7;;;;;;;2.5;100.0;100470;;;;
2022/12/09 01:55:00;;;;;;;2.8;2.7;;;;;;;2.7;100.0;100470;;;;
2022/12/09 01:56:02;;;;;;;2.8;2.7;;;;;;;2.7;100.0;100470;;;;
2022/12/09 01:57:01;;;;;;;2.8;2.7;;;;;;;2.6;100.0;100470;;;;
2022/12/09 01:58:00;;;;;;;2.8;2.7;;;;;;;2.6;100.0;100470;;;;
2022/12/09 01:59:04;;;;;;;2.8;2.7;;;;;;;2.4;100.0;100470;;;;
2022/12/09 02:00:00;;;;;;;2.8;2.7;;;;;;;2.4;100.0;100470;;;;
2022/12/09 02:01:00;;;;;;;2.8;2.7;;;;;;;2.5;100.0;100460;;;;
2022/12/09 02:02:02;;;;;;;2.7;2.6;;;;;;;2.5;100.0;100460;;;;
2022/12/09 02:03:01;;;;;;;2.7;2.6;;;;;;;2.5;100.0;100460;;;;
2022/12/09 02:04:01;;;;;;;2.7;2.6;;;;;;;2.5;100.0;100460;;;;
2022/12/09 02:05:01;;;;;;;2.7;2.6;;;;;;;2.4;100.0;100460;;;;
2022/12/09 02:06:00;;;;;;;2.7;2.6;;;;;;;2.4;100.0;100460;;;;
2022/12/09 02:07:03;;;;;;;2.7;2.6;;;;;;;2.4;100.0;100460;;;;
2022/12/09 02:08:00;;;;;;;2.7;2.6;;;;;;;2.4;100.0;100460;;;;
2022/12/09 02:09:00;;;;;;;2.7;2.6;;;;;;;2.3;100.0;100460;;;;
2022/12/09 02:10:02;;;;;;;2.7;2.6;;;;;;;2.3;100.0;100460;;;;
2022/12/09 02:11:05;;;;;;;2.7;2.6;;;;;;;2.3;100.0;100450;;;;
2022/12/09 02:12:10;;;;;;;2.7;2.6;;;;;;;2.3;100.0;100450;;;;
2022/12/09 02:13:10;;;;;;;2.7;2.6;;;;;;;2.4;100.0;100450;;;;
2022/12/09 02:14:04;;;;;;;2.7;2.6;;;;;;;2.4;100.0;100450;;;;
2022/12/09 02:15:02;;;;;;;2.7;2.6;;;;;;;2.4;100.0;100460;;;;
2022/12/09 02:16:02;;;;;;;2.7;2.6;;;;;;;2.4;100.0;100460;;;;
2022/12/09 02:17:10;;;;;;;2.7;2.6;;;;;;;2.4;100.0;100460;;;;
2022/12/09 02:18:02;;;;;;;2.7;2.6;;;;;;;2.4;100.0;100460;;;;
2022/12/09 02:19:10;;;;;;;2.7;2.6;;;;;;;2.4;100.0;100460;;;;
2022/12/09 02:20:00;;;;;;;2.7;2.6;;;;;;;2.4;100.0;100460;;;;
2022/12/09 02:21:04;;;;;;;2.7;2.6;;;;;;;2.4;100.0;100460;;;;
2022/12/09 02:22:00;;;;;;;3.0;2.9;;;;;;;2.4;100.0;100460;;;;
2022/12/09 02:23:10;;;;;;;3.0;2.9;;;;;;;2.4;100.0;100460;;;;
2022/12/09 02:24:10;;;;;;;3.0;2.9;;;;;;;2.4;100.0;100460;;;;
2022/12/09 02:25:10;;;;;;;3.0;2.9;;;;;;;2.4;100.0;100460;;;;
2022/12/09 02:26:10;;;;;;;3.0;2.9;;;;;;;2.4;100.0;100460;;;;
2022/12/09 02:27:07;;;;;;;3.0;2.9;;;;;;;2.4;100.0;100460;;;;
2022/12/09 02:28:10;;;;;;;3.0;2.9;;;;;;;2.4;100.0;100460;;;;
2022/12/09 02:29:08;;;;;;;3.0;2.9;;;;;;;2.5;100.0;100460;;;;
2022/12/09 02:30:04;;;;;;;3.0;2.9;;;;;;;2.5;100.0;100460;;;;
2022/12/09 02:31:10;;;;;;;3.0;2.9;;;;;;;2.5;100.0;100460;;;;
2022/12/09 02:32:10;;;;;;;3.0;2.9;;;;;;;2.5;100.0;100460;;;;
2022/12/09 02:33:11;;;;;;;3.0;2.9;;;;;;;2.5;100.0;100460;;;;
2022/12/09 02:34:03;;;;;;;3.0;2.9;;;;;;;2.5;100.0;100460;;;;
2022/12/09 02:35:09;;;;;;;3.0;2.9;;;;;;;2.5;100.0;100460;;;;
2022/12/09 02:36:04;;;;;;;3.0;2.9;;;;;;;2.5;100.0;100460;;;;
2022/12/09 02:37:05;;;;;;;3.0;2.9;;;;;;;2.5;100.0;100460;;;;
2022/12/09 02:38:10;;;;;;;3.0;2.9;;;;;;;2.5;100.0;100460;;;;
2022/12/09 02:39:01;;;;;;;3.0;2.9;;;;;;;2.5;100.0;100460;;;;
2022/12/09 02:40:05;;;;;;;3.0;2.9;;;;;;;2.5;100.0;100460;;;;
2022/12/09 02:41:04;;;;;;;3.0;2.9;;;;;;;2.7;100.0;100470;;;;
2022/12/09 02:42:01;;;;;;;3.0;2.9;;;;;;;2.7;100.0;100470;;;;
2022/12/09 02:43:02;;;;;;;3.0;2.9;;;;;;;2.5;100.0;100470;;;;
2022/12/09 02:44:03;;;;;;;3.0;2.9;;;;;;;2.5;100.0;100470;;;;
2022/12/09 02:45:02;;;;;;;3.0;2.9;;;;;;;2.6;100.0;100470;;;;
2022/12/09 02:46:01;;;;;;;3.0;2.9;;;;;;;2.6;100.0;100470;;;;
2022/12/09 02:47:02;;;;;;;3.0;2.9;;;;;;;2.6;100.0;100470;;;;
2022/12/09 02:48:01;;;;;;;3.0;2.9;;;;;;;2.6;100.0;100470;;;;
2022/12/09 02:49:00;;;;;;;3.0;2.9;;;;;;;2.7;100.0;100470;;;;
2022/12/09 02:50:02;;;;;;;3.0;2.9;;;;;;;2.7;100.0;100470;;;;
2022/12/09 02:51:03;;;;;;;3.0;2.9;;;;;;;2.6;100.0;100460;;;;
2022/12/09 02:52:01;;;;;;;3.0;2.9;;;;;;;2.6;100.0;100460;;;;
2022/12/09 02:53:03;;;;;;;3.0;2.9;;;;;;;2.6;100.0;100460;;;;
2022/12/09 02:54:04;;;;;;;3.0;2.9;;;;;;;2.6;100.0;100460;;;;
2022/12/09 02:55:03;;;;;;;3.0;2.9;;;;;;;2.5;100.0;100460;;;;
2022/12/09 02:56:02;;;;;;;3.0;2.9;;;;;;;2.5;100.0;100460;;;;
2022/12/09 02:57:03;;;;;;;3.0;2.9;;;;;;;2.5;100.0;100450;;;;
2022/12/09 02:58:00;;;;;;;3.0;2.9;;;;;;;2.5;100.0;100450;;;;
2022/12/09 02:59:01;;;;;;;3.0;2.9;;;;;;;2.5;100.0;100450;;;;
2022/12/09 03:00:00;;;;;;;3.0;2.9;;;;;;;2.5;100.0;100450;;;;
2022/12/09 03:01:00;;;;;;;3.0;2.9;;;;;;;2.5;100.0;100450;;;;
2022/12/09 03:02:03;;;;;;;2.9;2.8;;;;;;;2.5;100.0;100450;;;;
2022/12/09 03:03:01;;;;;;;2.9;2.8;;;;;;;2.4;100.0;100440;;;;
2022/12/09 03:04:01;;;;;;;2.9;2.8;;;;;;;2.4;100.0;100440;;;;
2022/12/09 03:05:00;;;;;;;2.9;2.8;;;;;;;2.4;100.0;100440;;;;
2022/12/09 03:06:04;;;;;;;2.9;2.8;;;;;;;2.4;100.0;100440;;;;
2022/12/09 03:07:10;;;;;;;2.9;2.8;;;;;;;2.4;100.0;100440;;;;
2022/12/09 03:08:00;;;;;;;2.9;2.8;;;;;;;2.4;100.0;100440;;;;
2022/12/09 03:09:06;;;;;;;2.9;2.8;;;;;;;2.5;100.0;100450;;;;
2022/12/09 03:10:06;;;;;;;2.9;2.8;;;;;;;2.5;100.0;100450;;;;
2022/12/09 03:11:00;;;;;;;2.9;2.8;;;;;;;2.4;100.0;100440;;;;
2022/12/09 03:12:05;;;;;;;2.9;2.8;;;;;;;2.4;100.0;100440;;;;
2022/12/09 03:13:04;;;;;;;2.9;2.8;;;;;;;2.4;100.0;100450;;;;
2022/12/09 03:14:05;;;;;;;2.9;2.8;;;;;;;2.4;100.0;100450;;;;
2022/12/09 03:15:03;;;;;;;2.9;2.8;;;;;;;2.3;100.0;100440;;;;
2022/12/09 03:16:05;;;;;;;2.9;2.8;;;;;;;2.3;100.0;100440;;;;
2022/12/09 03:17:07;;;;;;;2.9;2.8;;;;;;;2.3;100.0;100440;;;;
2022/12/09 03:18:02;;;;;;;2.9;2.8;;;;;;;2.3;100.0;100440;;;;
2022/12/09 03:19:04;;;;;;;2.9;2.8;;;;;;;2.3;100.0;100440;;;;
2022/12/09 03:20:11;;;;;;;2.9;2.8;;;;;;;2.3;100.0;100440;;;;
2022/12/09 03:21:02;;;;;;;2.9;2.8;;;;;;;2.3;100.0;100440;;;;
2022/12/09 03:22:02;;;;;;;2.8;2.7;;;;;;;2.3;100.0;100440;;;;
2022/12/09 03:23:01;;;;;;;2.8;2.7;;;;;;;2.4;100.0;100440;;;;
2022/12/09 03:24:01;;;;;;;2.8;2.7;;;;;;;2.4;100.0;100440;;;;
2022/12/09 03:25:10;;;;;;;2.8;2.7;;;;;;;2.3;100.0;100440;;;;
2022/12/09 03:26:01;;;;;;;2.8;2.7;;;;;;;2.3;100.0;100440;;;;
2022/12/09 03:27:05;;;;;;;2.8;2.7;;;;;;;2.4;100.0;100440;;;;
2022/12/09 03:28:03;;;;;;;2.8;2.7;;;;;;;2.4;100.0;100440;;;;
2022/12/09 03:29:02;;;;;;;2.8;2.7;;;;;;;2.5;100.0;100440;;;;
2022/12/09 03:30:01;;;;;;;2.8;2.7;;;;;;;2.5;100.0;100440;;;;
2022/12/09 03:31:03;;;;;;;2.8;2.7;;;;;;;2.5;100.0;100440;;;;
2022/12/09 03:32:00;;;;;;;2.8;2.7;;;;;;;2.5;100.0;100440;;;;
2022/12/09 03:33:01;;;;;;;2.8;2.7;;;;;;;2.4;100.0;100430;;;;
2022/12/09 03:34:01;;;;;;;2.8;2.7;;;;;;;2.4;100.0;100430;;;;
2022/12/09 03:35:03;;;;;;;2.8;2.7;;;;;;;2.4;100.0;100430;;;;
2022/12/09 03:36:03;;;;;;;2.8;2.7;;;;;;;2.4;100.0;100430;;;;
2022/12/09 03:37:01;;;;;;;2.8;2.7;;;;;;;2.5;100.0;100430;;;;
2022/12/09 03:38:03;;;;;;;2.8;2.7;;;;;;;2.5;100.0;100430;;;;
2022/12/09 03:39:01;;;;;;;2.8;2.7;;;;;;;2.3;100.0;100430;;;;
2022/12/09 03:40:00;;;;;;;2.8;2.7;;;;;;;2.3;100.0;100430;;;;
2022/12/09 03:41:05;;;;;;;2.8;2.7;;;;;;;2.2;100.0;100430;;;;
2022/12/09 03:42:03;;;;;;;2.9;2.8;;;;;;;2.2;100.0;100430;;;;
2022/12/09 03:43:00;;;;;;;2.9;2.8;;;;;;;2.3;100.0;100430;;;;
2022/12/09 03:44:03;;;;;;;2.9;2.8;;;;;;;2.3;100.0;100430;;;;
2022/12/09 03:45:02;;;;;;;2.9;2.8;;;;;;;2.3;100.0;100420;;;;
2022/12/09 03:46:00;;;;;;;2.9;2.8;;;;;;;2.3;100.0;100420;;;;
2022/12/09 03:47:00;;;;;;;2.9;2.8;;;;;;;2.3;100.0;100430;;;;
2022/12/09 03:48:00;;;;;;;2.9;2.8;;;;;;;2.3;100.0;100430;;;;
2022/12/09 03:49:00;;;;;;;2.9;2.8;;;;;;;2.3;100.0;100420;;;;
2022/12/09 03:50:00;;;;;;;2.9;2.8;;;;;;;2.3;100.0;100420;;;;
2022/12/09 03:51:04;;;;;;;2.9;2.8;;;;;;;2.2;100.0;100420;;;;
2022/12/09 03:52:07;;;;;;;2.9;2.8;;;;;;;2.2;100.0;100420;;;;
2022/12/09 03:53:03;;;;;;;2.9;2.8;;;;;;;2.1;100.0;100420;;;;
2022/12/09 03:54:05;;;;;;;2.9;2.8;;;;;;;2.1;100.0;100420;;;;
2022/12/09 03:55:05;;;;;;;2.9;2.8;;;;;;;2.0;100.0;100420;;;;
2022/12/09 03:56:06;;;;;;;2.9;2.8;;;;;;;2.0;100.0;100420;;;;
2022/12/09 03:57:00;;;;;;;2.9;2.8;;;;;;;2.1;100.0;100420;;;;
2022/12/09 03:58:02;;;;;;;2.9;2.8;;;;;;;2.1;100.0;100420;;;;
2022/12/09 03:59:02;;;;;;;2.9;2.8;;;;;;;1.9;100.0;100410;;;;
2022/12/09 04:00:01;;;;;;;2.9;2.8;;;;;;;1.9;100.0;100410;;;;
2022/12/09 04:01:01;;;;;;;2.9;2.8;;;;;;;1.9;100.0;100420;;;;
2022/12/09 04:02:02;;;;;;;2.8;2.7;;;;;;;1.9;100.0;100420;;;;
2022/12/09 04:03:01;;;;;;;2.8;2.7;;;;;;;1.9;100.0;100420;;;;
2022/12/09 04:04:01;;;;;;;2.8;2.7;;;;;;;1.9;100.0;100420;;;;
2022/12/09 04:05:00;;;;;;;2.8;2.7;;;;;;;2.1;100.0;100420;;;;
2022/12/09 04:06:01;;;;;;;2.8;2.7;;;;;;;2.1;100.0;100420;;;;
2022/12/09 04:07:01;;;;;;;2.8;2.7;;;;;;;2.2;100.0;100420;;;;
2022/12/09 04:08:00;;;;;;;2.8;2.7;;;;;;;2.2;100.0;100420;;;;
2022/12/09 04:09:03;;;;;;;2.8;2.7;;;;;;;2.3;100.0;100420;;;;
2022/12/09 04:10:00;;;;;;;2.8;2.7;;;;;;;2.3;100.0;100420;;;;
2022/12/09 04:11:00;;;;;;;2.8;2.7;;;;;;;2.3;100.0;100420;;;;
2022/12/09 04:12:00;;;;;;;2.8;2.7;;;;;;;2.3;100.0;100420;;;;
2022/12/09 04:13:00;;;;;;;2.8;2.7;;;;;;;2.2;100.0;100420;;;;
2022/12/09 04:14:00;;;;;;;2.8;2.7;;;;;;;2.2;100.0;100420;;;;
2022/12/09 04:15:00;;;;;;;2.8;2.7;;;;;;;2.2;100.0;100420;;;;
2022/12/09 04:16:00;;;;;;;2.8;2.7;;;;;;;2.2;100.0;100420;;;;
2022/12/09 04:17:00;;;;;;;2.8;2.7;;;;;;;2.2;100.0;100420;;;;
2022/12/09 04:18:00;;;;;;;2.8;2.7;;;;;;;2.2;100.0;100420;;;;
2022/12/09 04:19:00;;;;;;;2.8;2.7;;;;;;;2.4;100.0;100420;;;;
2022/12/09 04:20:00;;;;;;;2.8;2.7;;;;;;;2.4;100.0;100420;;;;
2022/12/09 04:21:03;;;;;;;2.7;2.6;;;;;;;2.3;100.0;100420;;;;
2022/12/09 04:22:00;;;;;;;2.7;2.6;;;;;;;2.3;100.0;100420;;;;
2022/12/09 04:23:00;;;;;;;2.7;2.6;;;;;;;2.3;100.0;100420;;;;
2022/12/09 04:24:00;;;;;;;2.7;2.6;;;;;;;2.3;100.0;100420;;;;
2022/12/09 04:25:00;;;;;;;2.7;2.6;;;;;;;2.4;100.0;100420;;;;
2022/12/09 04:26:00;;;;;;;2.7;2.6;;;;;;;2.4;100.0;100420;;;;
2022/12/09 04:27:00;;;;;;;2.7;2.6;;;;;;;2.3;100.0;100420;;;;
2022/12/09 04:28:00;;;;;;;2.7;2.6;;;;;;;2.3;100.0;100420;;;;
2022/12/09 04:29:00;;;;;;;2.7;2.6;;;;;;;2.4;100.0;100410;;;;
2022/12/09 04:30:00;;;;;;;2.7;2.6;;;;;;;2.4;100.0;100410;;;;
2022/12/09 04:31:00;;;;;;;2.7;2.6;;;;;;;2.5;100.0;100410;;;;
2022/12/09 04:32:00;;;;;;;2.7;2.6;;;;;;;2.5;100.0;100410;;;;
2022/12/09 04:33:00;;;;;;;2.7;2.6;;;;;;;2.5;100.0;100410;;;;
2022/12/09 04:34:08;;;;;;;2.7;2.6;;;;;;;2.5;100.0;100410;;;;
2022/12/09 04:35:00;;;;;;;2.7;2.6;;;;;;;2.5;100.0;100410;;;;
2022/12/09 04:36:04;;;;;;;2.7;2.6;;;;;;;2.5;100.0;100410;;;;
2022/12/09 04:37:00;;;;;;;2.7;2.6;;;;;;;2.3;100.0;100410;;;;
2022/12/09 04:38:00;;;;;;;2.7;2.6;;;;;;;2.3;100.0;100410;;;;
2022/12/09 04:39:00;;;;;;;2.7;2.6;;;;;;;2.3;100.0;100410;;;;
2022/12/09 04:40:00;;;;;;;2.7;2.6;;;;;;;2.3;100.0;100410;;;;
2022/12/09 04:41:00;;;;;;;2.9;2.8;;;;;;;2.3;100.0;100410;;;;
2022/12/09 04:42:00;;;;;;;2.9;2.8;;;;;;;2.3;100.0;100410;;;;
2022/12/09 04:43:00;;;;;;;2.9;2.8;;;;;;;2.3;100.0;100410;;;;
2022/12/09 04:44:00;;;;;;;2.9;2.8;;;;;;;2.3;100.0;100410;;;;
2022/12/09 04:45:00;;;;;;;2.9;2.8;;;;;;;2.4;100.0;100410;;;;
2022/12/09 04:46:01;;;;;;;2.9;2.8;;;;;;;2.4;100.0;100410;;;;
2022/12/09 04:47:00;;;;;;;2.9;2.8;;;;;;;2.3;100.0;100410;;;;
2022/12/09 04:48:00;;;;;;;2.9;2.8;;;;;;;2.3;100.0;100410;;;;
2022/12/09 04:49:00;;;;;;;2.9;2.8;;;;;;;2.2;100.0;100410;;;;
2022/12/09 04:50:00;;;;;;;2.9;2.8;;;;;;;2.2;100.0;100410;;;;
2022/12/09 04:51:00;;;;;;;2.9;2.8;;;;;;;2.3;100.0;100410;;;;
2022/12/09 04:52:00;;;;;;;2.9;2.8;;;;;;;2.3;100.0;100410;;;;
2022/12/09 04:53:01;;;;;;;2.9;2.8;;;;;;;2.2;100.0;100410;;;;
2022/12/09 04:54:00;;;;;;;2.9;2.8;;;;;;;2.2;100.0;100410;;;;
2022/12/09 04:55:00;;;;;;;2.9;2.8;;;;;;;2.3;100.0;100410;;;;
2022/12/09 04:56:03;;;;;;;2.9;2.8;;;;;;;2.3;100.0;100410;;;;
2022/12/09 04:57:00;;;;;;;2.9;2.8;;;;;;;2.2;100.0;100420;;;;
2022/12/09 04:58:00;;;;;;;2.9;2.8;;;;;;;2.2;100.0;100420;;;;
2022/12/09 04:59:00;;;;;;;2.9;2.8;;;;;;;2.2;100.0;100420;;;;
2022/12/09 05:00:00;;;;;;;2.9;2.8;;;;;;;2.2;100.0;100420;;;;
2022/12/09 05:01:09;;;;;;;3.0;2.9;;;;;;;2.3;100.0;100420;;;;
2022/12/09 05:02:00;;;;;;;3.0;2.9;;;;;;;2.3;100.0;100420;;;;
2022/12/09 05:03:00;;;;;;;3.0;2.9;;;;;;;2.3;100.0;100420;;;;
2022/12/09 05:04:00;;;;;;;3.0;2.9;;;;;;;2.3;100.0;100420;;;;
2022/12/09 05:05:00;;;;;;;3.0;2.9;;;;;;;2.3;100.0;100420;;;;
2022/12/09 05:06:02;;;;;;;3.0;2.9;;;;;;;2.3;100.0;100420;;;;
2022/12/09 05:07:00;;;;;;;3.0;2.9;;;;;;;2.4;100.0;100420;;;;
2022/12/09 05:08:00;;;;;;;3.0;2.9;;;;;;;2.4;100.0;100420;;;;
2022/12/09 05:09:00;;;;;;;3.0;2.9;;;;;;;2.5;100.0;100420;;;;
2022/12/09 05:10:00;;;;;;;3.0;2.9;;;;;;;2.5;100.0;100420;;;;
2022/12/09 05:11:01;;;;;;;3.0;2.9;;;;;;;2.4;100.0;100420;;;;
2022/12/09 05:12:00;;;;;;;3.0;2.9;;;;;;;2.4;100.0;100420;;;;
2022/12/09 05:13:00;;;;;;;3.0;2.9;;;;;;;2.4;100.0;100410;;;;
2022/12/09 05:14:00;;;;;;;3.0;2.9;;;;;;;2.4;100.0;100410;;;;
2022/12/09 05:15:00;;;;;;;3.0;2.9;;;;;;;2.3;100.0;100420;;;;
2022/12/09 05:16:02;;;;;;;3.0;2.9;;;;;;;2.3;100.0;100420;;;;
2022/12/09 05:17:01;;;;;;;3.0;2.9;;;;;;;2.3;100.0;100420;;;;
2022/12/09 05:18:01;;;;;;;3.0;2.9;;;;;;;2.3;100.0;100420;;;;
2022/12/09 05:19:00;;;;;;;3.0;2.9;;;;;;;2.4;100.0;100420;;;;
2022/12/09 05:20:00;;;;;;;3.0;2.9;;;;;;;2.4;100.0;100420;;;;
2022/12/09 05:21:09;;;;;;;2.9;2.8;;;;;;;2.4;100.0;100420;;;;
2022/12/09 05:22:00;;;;;;;2.9;2.8;;;;;;;2.4;100.0;100420;;;;
2022/12/09 05:23:09;;;;;;;2.9;2.8;;;;;;;2.4;100.0;100420;;;;
2022/12/09 05:24:01;;;;;;;2.9;2.8;;;;;;;2.4;100.0;100420;;;;
2022/12/09 05:25:00;;;;;;;2.9;2.8;;;;;;;2.5;100.0;100410;;;;
2022/12/09 05:26:04;;;;;;;2.9;2.8;;;;;;;2.5;100.0;100410;;;;
2022/12/09 05:27:00;;;;;;;2.9;2.8;;;;;;;2.4;100.0;100420;;;;
2022/12/09 05:28:00;;;;;;;2.9;2.8;;;;;;;2.4;100.0;100420;;;;
2022/12/09 05:29:00;;;;;;;2.9;2.8;;;;;;;2.3;100.0;100410;;;;
2022/12/09 05:30:00;;;;;;;2.9;2.8;;;;;;;2.3;100.0;100410;;;;
2022/12/09 05:31:01;;;;;;;2.9;2.8;;;;;;;2.4;100.0;100410;;;;
2022/12/09 05:32:00;;;;;;;2.9;2.8;;;;;;;2.4;100.0;100410;;;;
2022/12/09 05:33:00;;;;;;;2.9;2.8;;;;;;;2.4;100.0;100410;;;;
2022/12/09 05:34:00;;;;;;;2.9;2.8;;;;;;;2.4;100.0;100410;;;;
2022/12/09 05:35:00;;;;;;;2.9;2.8;;;;;;;2.4;100.0;100420;;;;
2022/12/09 05:36:00;;;;;;;2.9;2.8;;;;;;;2.4;100.0;100420;;;;
2022/12/09 05:37:00;;;;;;;2.9;2.8;;;;;;;2.5;100.0;100420;;;;
2022/12/09 05:38:00;;;;;;;2.9;2.8;;;;;;;2.5;100.0;100420;;;;
2022/12/09 05:39:00;;;;;;;2.9;2.8;;;;;;;2.4;100.0;100410;;;;
2022/12/09 05:40:00;;;;;;;2.9;2.8;;;;;;;2.4;100.0;100410;;;;
2022/12/09 05:41:00;;;;;;;4.3;4.1;;;;;;;2.4;100.0;100410;;;;
2022/12/09 05:42:00;;;;;;;4.3;4.1;;;;;;;2.4;100.0;100410;;;;
2022/12/09 05:43:00;;;;;;;4.3;4.1;;;;;;;2.4;100.0;100410;;;;
2022/12/09 05:44:00;;;;;;;4.3;4.1;;;;;;;2.4;100.0;100410;;;;
2022/12/09 05:45:00;;;;;;;4.3;4.1;;;;;;;2.3;100.0;100410;;;;
2022/12/09 05:46:01;;;;;;;4.3;4.1;;;;;;;2.3;100.0;100410;;;;
2022/12/09 05:47:00;;;;;;;4.3;4.1;;;;;;;2.4;100.0;100410;;;;
2022/12/09 05:48:00;;;;;;;4.3;4.1;;;;;;;2.4;100.0;100410;;;;
2022/12/09 05:49:00;;;;;;;4.3;4.1;;;;;;;2.3;100.0;100410;;;;
2022/12/09 05:50:07;;;;;;;4.3;4.1;;;;;;;2.3;100.0;100410;;;;
2022/12/09 05:51:02;;;;;;;4.3;4.1;;;;;;;2.3;100.0;100410;;;;
2022/12/09 05:52:00;;;;;;;4.3;4.1;;;;;;;2.3;100.0;100410;;;;
2022/12/09 05:53:00;;;;;;;4.3;4.1;;;;;;;2.3;100.0;100410;;;;
2022/12/09 05:54:02;;;;;;;4.3;4.1;;;;;;;2.3;100.0;100410;;;;
2022/12/09 05:55:02;;;;;;;4.3;4.1;;;;;;;2.4;100.0;100410;;;;
2022/12/09 05:56:01;;;;;;;4.3;4.1;;;;;;;2.4;100.0;100410;;;;
2022/12/09 05:57:02;;;;;;;4.3;4.1;;;;;;;2.4;100.0;100410;;;;
2022/12/09 05:58:00;;;;;;;4.3;4.1;;;;;;;2.4;100.0;100410;;;;
2022/12/09 05:59:00;;;;;;;4.3;4.1;;;;;;;2.4;100.0;100410;;;;
2022/12/09 06:00:00;;;;;;;4.3;4.1;;;;;;;2.4;100.0;100410;;;;
2022/12/09 06:01:04;;;;;;;3.1;3.0;;;;;;;2.4;100.0;100410;;;;
2022/12/09 06:02:08;;;;;;;3.1;3.0;;;;;;;2.4;100.0;100410;;;;
2022/12/09 06:03:01;;;;;;;3.1;3.0;;;;;;;2.4;100.0;100410;;;;
2022/12/09 06:04:01;;;;;;;3.1;3.0;;;;;;;2.4;100.0;100410;;;;
2022/12/09 06:05:01;;;;;;;3.1;3.0;;;;;;;2.4;100.0;100400;;;;
2022/12/09 06:06:04;;;;;;;3.1;3.0;;;;;;;2.4;100.0;100400;;;;
2022/12/09 06:07:00;;;;;;;3.1;3.0;;;;;;;2.4;100.0;100400;;;;
2022/12/09 06:08:06;;;;;;;3.1;3.0;;;;;;;2.4;100.0;100400;;;;
2022/12/09 06:09:01;;;;;;;3.1;3.0;;;;;;;2.4;100.0;100410;;;;
2022/12/09 06:10:01;;;;;;;3.1;3.0;;;;;;;2.4;100.0;100410;;;;
2022/12/09 06:11:00;;;;;;;3.1;3.0;;;;;;;2.3;100.0;100400;;;;
2022/12/09 06:12:00;;;;;;;3.1;3.0;;;;;;;2.3;100.0;100400;;;;
2022/12/09 06:13:00;;;;;;;3.1;3.0;;;;;;;2.4;100.0;100400;;;;
2022/12/09 06:14:00;;;;;;;3.1;3.0;;;;;;;2.4;100.0;100400;;;;
2022/12/09 06:15:00;;;;;;;3.1;3.0;;;;;;;2.3;100.0;100410;;;;
2022/12/09 06:16:03;;;;;;;3.1;3.0;;;;;;;2.3;100.0;100410;;;;
2022/12/09 06:17:01;;;;;;;3.1;3.0;;;;;;;2.3;100.0;100400;;;;
2022/12/09 06:18:00;;;;;;;3.1;3.0;;;;;;;2.3;100.0;100400;;;;
2022/12/09 06:19:00;;;;;;;3.1;3.0;;;;;;;2.4;100.0;100400;;;;
2022/12/09 06:20:00;;;;;;;3.1;3.0;;;;;;;2.4;100.0;100400;;;;
2022/12/09 06:21:03;;;;;;;2.8;2.7;;;;;;;2.4;100.0;100400;;;;
2022/12/09 06:22:00;;;;;;;2.8;2.7;;;;;;;2.4;100.0;100400;;;;
2022/12/09 06:23:00;;;;;;;2.8;2.7;;;;;;;2.4;100.0;100400;;;;
2022/12/09 06:24:00;;;;;;;2.8;2.7;;;;;;;2.4;100.0;100400;;;;
2022/12/09 06:25:00;;;;;;;2.8;2.7;;;;;;;2.4;100.0;100400;;;;
2022/12/09 06:26:01;;;;;;;2.8;2.7;;;;;;;2.4;100.0;100400;;;;
2022/12/09 06:27:00;;;;;;;2.8;2.7;;;;;;;2.4;100.0;100410;;;;
2022/12/09 06:28:01;;;;;;;2.8;2.7;;;;;;;2.4;100.0;100410;;;;
2022/12/09 06:29:00;;;;;;;2.8;2.7;;;;;;;2.4;100.0;100410;;;;